トロント/ピアソン の空港の天気 - METARとTAF

トロント・ピアソン国際空港 ( CYYZ / YYZ ) - カナダ オンタリオ州トロント
飛行場実況気象(Metar)
観測時間06/25 09:00 EDT (06/25 13:00 UTC)
風向・風速北 5m/s
視程10km以上
天気現象
少しの雲 雲底高度 7920m
気温17℃
湿度63%
気圧1022.7hPa
METARCYYZ 251300Z 35010KT 15SM FEW260 17/10 A3020 RMK CI1 CI TR SLP227 DENSITY ALT 600FT
過去の天気等 Google飛行場航空写真 Wunderground天気予報

過去48時間のMETAR

飛行場予報(TAF)
発表時間: 6/25 07:38 EDT (6/25 11:38 UTC)
予報対象時間: 25日8時 EDT ~ 26日14時 EDT
風向・風速北 6m/s
視程10km以上
なし
25日14時 EDT から
風向・風速北 4m/s
視程10km以上
なし
26日1時 EDT ~ 26日3時 EDT に徐々に
風向・風速北西 2m/s
26日6時 EDT ~ 26日8時 EDT に徐々に
風向・風速不定 2m/s
26日11時 EDT から
風向・風速南東 6m/s
視程10km以上
なし
TAF CYYZ 251138Z 2512/2618 36012KT P6SM SKC
FM251800 01008KT P6SM SKC
BECMG 2605/2607 32003KT
BECMG 2610/2612 VRB03KT
FM261500 14012KT P6SM SKC RMK NXT FCST BY 251500Z